createdAt,value
2022-12-20T00:00:58.669Z,37.27
2022-12-20T00:01:58.809Z,37.27
2022-12-20T00:02:58.673Z,37.16
2022-12-20T00:03:58.642Z,37.27
2022-12-20T00:04:58.686Z,37.16
2022-12-20T00:05:58.607Z,37.37
2022-12-20T00:06:58.595Z,37.37
2022-12-20T00:07:58.582Z,37.27
2022-12-20T00:08:58.585Z,37.38
2022-12-20T00:09:58.559Z,37.48
2022-12-20T00:10:58.553Z,37.48
2022-12-20T00:11:58.524Z,37.38
2022-12-20T00:12:58.511Z,37.38
2022-12-20T00:13:58.523Z,37.37
2022-12-20T00:14:58.485Z,37.38
2022-12-20T00:15:58.476Z,37.38
2022-12-20T00:16:58.464Z,37.59
2022-12-20T00:17:58.550Z,37.38
2022-12-20T00:18:58.451Z,37.59
2022-12-20T00:19:58.420Z,37.48
2022-12-20T00:20:58.429Z,37.48
2022-12-20T00:21:58.401Z,37.59
2022-12-20T00:22:58.380Z,37.59
2022-12-20T00:23:58.406Z,37.59
2022-12-20T00:24:58.363Z,37.48
2022-12-20T00:25:58.342Z,37.59
2022-12-20T00:26:58.342Z,37.48
2022-12-20T00:27:58.319Z,37.59
2022-12-20T00:28:58.328Z,37.59
2022-12-20T00:29:58.297Z,37.68
2022-12-20T00:30:58.285Z,37.59
2022-12-20T00:31:58.378Z,37.59
2022-12-20T00:32:58.276Z,37.68
2022-12-20T00:33:58.241Z,37.59
2022-12-20T00:34:58.227Z,37.48
2022-12-20T00:35:58.230Z,37.59
2022-12-20T00:36:58.205Z,37.68
2022-12-20T00:37:58.211Z,37.59
2022-12-20T00:38:58.197Z,37.59
2022-12-20T00:39:58.176Z,37.68
2022-12-20T00:40:58.153Z,37.79
2022-12-20T00:41:58.139Z,37.68
2022-12-20T00:42:58.128Z,37.88
2022-12-20T00:43:58.130Z,37.88
2022-12-20T00:44:58.106Z,37.68
2022-12-20T00:45:58.089Z,37.79
2022-12-20T00:46:58.118Z,37.79
2022-12-20T00:47:58.065Z,37.68
2022-12-20T00:48:58.057Z,37.79
2022-12-20T00:49:58.035Z,37.79
2022-12-20T00:50:58.028Z,37.79
2022-12-20T00:51:58.022Z,37.68
2022-12-20T00:52:58.001Z,37.79
2022-12-20T00:53:58.010Z,37.68
2022-12-20T00:54:57.969Z,37.79
2022-12-20T00:55:57.956Z,37.68
2022-12-20T00:56:57.957Z,37.68
2022-12-20T00:57:57.932Z,37.68
2022-12-20T00:58:57.964Z,37.88
2022-12-20T00:59:57.918Z,37.79
2022-12-20T01:00:57.945Z,37.79
2022-12-20T01:01:58.100Z,37.68
2022-12-20T01:02:58.083Z,37.68
2022-12-20T01:03:57.870Z,37.59
2022-12-20T01:04:57.863Z,37.68
2022-12-20T01:05:57.831Z,37.98
2022-12-20T01:06:57.821Z,37.88
2022-12-20T01:07:57.808Z,37.88
2022-12-20T01:08:57.814Z,37.88
2022-12-20T01:09:57.791Z,37.98
2022-12-20T01:10:57.768Z,37.88
2022-12-20T01:11:57.754Z,37.88
2022-12-20T01:12:57.747Z,37.88
2022-12-20T01:13:57.745Z,37.88
2022-12-20T01:14:57.723Z,37.88
2022-12-20T01:15:57.759Z,37.88
2022-12-20T01:16:57.800Z,37.88
2022-12-20T01:17:57.683Z,37.88
2022-12-20T01:18:57.688Z,37.88
2022-12-20T01:19:57.659Z,37.88
2022-12-20T01:20:57.647Z,37.79
2022-12-20T01:21:57.630Z,37.98
2022-12-20T01:22:57.650Z,37.88
2022-12-20T01:23:57.636Z,37.88
2022-12-20T01:24:57.630Z,37.79
2022-12-20T01:25:57.581Z,37.79
2022-12-20T01:26:57.562Z,37.79
2022-12-20T01:27:57.548Z,37.79
2022-12-20T01:28:57.543Z,37.90
2022-12-20T01:29:57.527Z,38.00
2022-12-20T01:30:57.505Z,37.90
2022-12-20T01:31:57.548Z,38.10
2022-12-20T01:32:57.494Z,38.00
2022-12-20T01:33:57.496Z,37.98
2022-12-20T01:34:57.470Z,37.90
2022-12-20T01:35:57.445Z,37.98
2022-12-20T01:36:57.436Z,38.00
2022-12-20T01:39:35.012Z,37.90
2022-12-20T01:39:39.558Z,37.88
2022-12-20T01:39:57.386Z,37.98
2022-12-20T01:40:57.414Z,37.98
2022-12-20T01:41:57.365Z,37.88
2022-12-20T01:42:57.362Z,37.79
2022-12-20T01:43:57.353Z,37.88
2022-12-20T01:44:57.342Z,37.90
2022-12-20T01:45:57.461Z,38.00
2022-12-20T01:46:57.298Z,38.00
2022-12-20T01:47:57.287Z,38.00
2022-12-20T01:48:57.287Z,38.00
2022-12-20T01:49:57.267Z,38.10
2022-12-20T01:50:57.265Z,38.10
2022-12-20T01:51:57.234Z,38.10
2022-12-20T01:52:57.251Z,38.10
2022-12-20T01:53:57.220Z,38.10
2022-12-20T01:54:57.194Z,38.10
2022-12-20T01:55:57.180Z,38.00
2022-12-20T01:56:57.178Z,38.00
2022-12-20T01:57:57.157Z,37.90
2022-12-20T01:58:57.153Z,37.90
2022-12-20T01:59:57.132Z,38.00
2022-12-20T02:00:57.125Z,38.00
2022-12-20T02:01:57.402Z,38.00
2022-12-20T02:02:57.203Z,38.10
2022-12-20T02:03:57.093Z,38.10
2022-12-20T02:04:57.060Z,38.10
2022-12-20T02:05:57.054Z,38.00
2022-12-20T02:06:57.038Z,38.10
2022-12-20T02:07:57.046Z,38.00
2022-12-20T02:08:57.021Z,38.20
2022-12-20T02:09:57.011Z,38.00
2022-12-20T02:10:56.984Z,38.00
2022-12-20T02:11:56.965Z,38.20
2022-12-20T02:12:56.957Z,38.10
2022-12-20T02:13:56.957Z,38.10
2022-12-20T02:14:56.925Z,38.00
2022-12-20T02:15:56.929Z,38.10
2022-12-20T02:16:56.930Z,38.20
2022-12-20T02:17:56.884Z,38.10
2022-12-20T02:18:56.889Z,38.10
2022-12-20T02:19:56.868Z,38.00
2022-12-20T02:20:56.852Z,38.10
2022-12-20T02:21:56.838Z,38.00
2022-12-20T02:22:56.848Z,38.10
2022-12-20T02:23:56.816Z,38.10
2022-12-20T02:24:56.814Z,38.10
2022-12-20T02:25:56.785Z,38.10
2022-12-20T02:26:56.780Z,38.00
2022-12-20T02:27:56.763Z,38.10
2022-12-20T02:28:56.741Z,38.00
2022-12-20T02:29:56.743Z,38.00
2022-12-20T02:30:56.730Z,38.10
2022-12-20T02:31:56.747Z,38.00
2022-12-20T02:32:56.690Z,38.10
2022-12-20T02:33:56.683Z,38.10
2022-12-20T02:34:56.673Z,38.10
2022-12-20T02:35:56.654Z,38.10
2022-12-20T02:36:56.645Z,38.20
2022-12-20T02:37:56.630Z,38.10
2022-12-20T02:38:56.609Z,38.20
2022-12-20T02:39:56.612Z,38.10
2022-12-20T02:40:56.587Z,38.00
2022-12-20T02:41:56.577Z,38.10
2022-12-20T02:42:56.562Z,38.00
2022-12-20T02:43:56.548Z,38.10
2022-12-20T02:44:56.594Z,38.10
2022-12-20T02:45:56.593Z,38.00
2022-12-20T02:46:56.509Z,38.00
2022-12-20T02:47:56.500Z,38.00
2022-12-20T02:48:56.484Z,38.00
2022-12-20T02:49:56.485Z,38.00
2022-12-20T02:50:56.470Z,37.90
2022-12-20T02:51:56.444Z,37.90
2022-12-20T02:52:56.430Z,38.00
2022-12-20T02:53:56.414Z,37.90
2022-12-20T02:54:56.440Z,38.00
2022-12-20T02:55:56.400Z,38.00
2022-12-20T02:56:56.396Z,38.00
2022-12-20T02:58:00.335Z,38.00
2022-12-20T02:58:56.353Z,37.90
2022-12-20T02:59:56.358Z,38.00
2022-12-20T03:00:56.412Z,38.00
2022-12-20T03:01:56.500Z,38.00
2022-12-20T03:02:56.483Z,38.00
2022-12-20T03:03:56.320Z,38.00
2022-12-20T03:04:56.285Z,38.00
2022-12-20T03:05:56.268Z,38.00
2022-12-20T03:06:56.255Z,38.00
2022-12-20T03:07:56.238Z,38.10
2022-12-20T03:08:56.232Z,38.00
2022-12-20T03:09:56.228Z,38.00
2022-12-20T03:10:56.201Z,38.00
2022-12-20T03:11:56.187Z,37.90
2022-12-20T03:12:56.168Z,38.00
2022-12-20T03:13:56.161Z,38.00
2022-12-20T03:14:56.155Z,38.00
2022-12-20T03:15:56.131Z,38.00
2022-12-20T03:16:56.204Z,38.00
2022-12-20T03:17:56.108Z,38.00
2022-12-20T03:18:56.096Z,38.10
2022-12-20T03:19:56.103Z,38.00
2022-12-20T03:20:56.070Z,38.00
2022-12-20T03:21:56.064Z,38.00
2022-12-20T03:22:56.063Z,38.00
2022-12-20T03:23:56.036Z,37.90
2022-12-20T03:24:56.029Z,37.90
2022-12-20T03:25:56.074Z,37.90
2022-12-20T03:26:56.007Z,38.00
2022-12-20T03:27:55.979Z,37.90
2022-12-20T03:28:55.959Z,38.00
2022-12-20T03:29:55.962Z,38.00
2022-12-20T03:30:55.980Z,38.10
2022-12-20T03:31:55.922Z,38.10
2022-12-20T03:32:55.917Z,38.00
2022-12-20T03:33:55.901Z,38.00
2022-12-20T03:34:55.897Z,38.10
2022-12-20T03:35:55.873Z,38.00
2022-12-20T03:36:55.870Z,38.10
2022-12-20T03:37:55.846Z,38.00
2022-12-20T03:38:55.841Z,38.10
2022-12-20T03:39:55.831Z,38.10
2022-12-20T03:40:55.818Z,38.00
2022-12-20T03:41:55.799Z,37.90
2022-12-20T03:42:55.803Z,37.90
2022-12-20T03:43:55.770Z,37.90
2022-12-20T03:44:55.830Z,38.10
2022-12-20T03:45:55.779Z,38.10
2022-12-20T03:46:55.743Z,38.00
2022-12-20T03:47:55.730Z,38.00
2022-12-20T03:48:55.711Z,38.00
2022-12-20T03:49:55.716Z,38.00
2022-12-20T03:50:55.678Z,38.00
2022-12-20T03:51:55.669Z,38.00
2022-12-20T03:52:55.661Z,37.90
2022-12-20T03:53:55.648Z,38.10
2022-12-20T03:54:55.651Z,38.00
2022-12-20T03:55:55.620Z,37.90
2022-12-20T03:56:55.603Z,38.10
2022-12-20T03:57:55.613Z,38.00
2022-12-20T03:58:55.587Z,38.00
2022-12-20T03:59:55.572Z,38.10
2022-12-20T04:00:55.561Z,38.20
2022-12-20T04:01:55.719Z,38.10
2022-12-20T04:02:55.742Z,38.00
2022-12-20T04:03:55.592Z,38.10
2022-12-20T04:04:55.521Z,38.00
2022-12-20T04:05:55.503Z,38.10
2022-12-20T04:06:55.481Z,38.10
2022-12-20T04:07:55.473Z,38.00
2022-12-20T04:08:55.453Z,38.00
2022-12-20T04:09:55.468Z,38.00
2022-12-20T04:10:55.430Z,38.10
2022-12-20T04:11:55.420Z,38.00
2022-12-20T04:12:55.400Z,38.20
2022-12-20T04:13:55.409Z,38.20
2022-12-20T04:14:55.383Z,38.10
2022-12-20T04:16:00.352Z,38.00
2022-12-20T04:16:55.363Z,38.20
2022-12-20T04:17:55.331Z,38.10
2022-12-20T04:18:55.332Z,38.00
2022-12-20T04:19:55.331Z,38.00
2022-12-20T04:20:55.491Z,37.90
2022-12-20T04:21:59.299Z,38.00
2022-12-20T04:22:55.273Z,38.20
2022-12-20T04:23:55.262Z,38.20
2022-12-20T04:24:55.293Z,38.10
2022-12-20T04:25:55.252Z,38.10
2022-12-20T04:26:55.227Z,38.00
2022-12-20T04:27:55.207Z,37.90
2022-12-20T04:28:55.188Z,37.90
2022-12-20T04:29:55.194Z,38.00
2022-12-20T04:30:55.257Z,37.90
2022-12-20T04:31:55.252Z,37.90
2022-12-20T04:32:55.144Z,37.90
2022-12-20T04:33:55.136Z,38.00
2022-12-20T04:34:55.137Z,37.90
2022-12-20T04:35:55.103Z,37.90
2022-12-20T04:36:55.089Z,37.90
2022-12-20T04:37:55.079Z,37.90
2022-12-20T04:38:55.082Z,37.90
2022-12-20T04:39:55.061Z,37.79
2022-12-20T04:40:55.044Z,37.68
2022-12-20T04:41:55.022Z,37.68
2022-12-20T04:42:55.028Z,37.68
2022-12-20T04:43:54.999Z,37.79
2022-12-20T04:44:55.006Z,37.68
2022-12-20T04:45:54.971Z,37.68
2022-12-20T04:46:55.048Z,37.68
2022-12-20T04:47:54.950Z,37.68
2022-12-20T04:48:58.528Z,37.68
2022-12-20T04:49:54.949Z,37.68
2022-12-20T04:50:54.906Z,37.68
2022-12-20T04:51:54.907Z,37.68
2022-12-20T04:52:54.882Z,37.68
2022-12-20T04:53:54.872Z,37.68
2022-12-20T04:54:54.865Z,37.68
2022-12-20T04:55:54.859Z,37.68
2022-12-20T04:56:54.841Z,37.68
2022-12-20T04:57:54.831Z,37.68
2022-12-20T04:58:54.819Z,37.68
2022-12-20T04:59:54.822Z,37.79
2022-12-20T05:00:54.784Z,37.68
2022-12-20T05:01:54.891Z,37.79
2022-12-20T05:02:54.979Z,37.90
2022-12-20T05:03:54.919Z,37.79
2022-12-20T05:04:54.740Z,37.79
2022-12-20T05:05:54.712Z,37.68
2022-12-20T05:06:54.708Z,37.79
2022-12-20T05:07:54.697Z,37.88
2022-12-20T05:08:54.672Z,37.79
2022-12-20T05:09:54.699Z,37.90
2022-12-20T05:10:54.661Z,37.88
2022-12-20T05:11:54.639Z,37.90
2022-12-20T05:12:54.629Z,37.88
2022-12-20T05:13:54.623Z,37.88
2022-12-20T05:14:54.613Z,37.90
2022-12-20T05:15:54.688Z,38.00
2022-12-20T05:16:54.577Z,38.00
2022-12-20T05:17:54.556Z,38.00
2022-12-20T05:18:54.549Z,37.90
2022-12-20T05:19:54.550Z,37.90
2022-12-20T05:20:54.519Z,38.00
2022-12-20T05:21:54.510Z,38.00
2022-12-20T05:22:54.498Z,38.10
2022-12-20T05:23:54.491Z,38.10
2022-12-20T05:24:54.491Z,38.20
2022-12-20T05:25:54.517Z,38.20
2022-12-20T05:26:54.467Z,38.20
2022-12-20T05:27:54.434Z,38.20
2022-12-20T05:28:54.422Z,38.20
2022-12-20T05:29:54.418Z,38.10
2022-12-20T05:30:54.467Z,37.88
2022-12-20T05:31:54.447Z,37.88
2022-12-20T05:32:54.371Z,38.00
2022-12-20T05:33:54.370Z,38.00
2022-12-20T05:34:54.356Z,38.10
2022-12-20T05:35:54.332Z,37.98
2022-12-20T05:36:54.319Z,37.88
2022-12-20T05:37:54.304Z,38.20
2022-12-20T05:38:58.250Z,38.20
2022-12-20T05:39:54.294Z,37.98
2022-12-20T05:40:54.267Z,38.00
2022-12-20T05:41:54.262Z,37.88
2022-12-20T05:42:54.251Z,37.88
2022-12-20T05:43:54.236Z,37.88
2022-12-20T05:44:54.230Z,37.98
2022-12-20T05:45:54.200Z,37.88
2022-12-20T05:46:54.242Z,37.79
2022-12-20T05:47:54.181Z,38.10
2022-12-20T05:48:54.162Z,38.20
2022-12-20T05:49:54.163Z,38.10
2022-12-20T05:50:54.151Z,37.98
2022-12-20T05:51:54.127Z,38.10
2022-12-20T05:52:54.108Z,38.10
2022-12-20T05:53:54.119Z,38.20
2022-12-20T05:54:54.101Z,38.20
2022-12-20T05:55:54.067Z,38.20
2022-12-20T05:56:54.060Z,38.10
2022-12-20T05:57:54.050Z,38.20
2022-12-20T05:58:54.042Z,38.31
2022-12-20T05:59:54.038Z,38.31
2022-12-20T06:00:54.007Z,38.00
2022-12-20T06:01:54.154Z,38.10
2022-12-20T06:02:54.189Z,38.10
2022-12-20T06:03:54.075Z,38.31
2022-12-20T06:04:53.973Z,38.40
2022-12-20T06:05:53.952Z,38.31
2022-12-20T06:06:53.937Z,38.10
2022-12-20T06:07:53.915Z,38.31
2022-12-20T06:08:53.903Z,38.20
2022-12-20T06:09:53.907Z,38.31
2022-12-20T06:10:53.943Z,38.10
2022-12-20T06:11:53.865Z,37.88
2022-12-20T06:12:53.854Z,37.90
2022-12-20T06:13:53.841Z,38.31
2022-12-20T06:14:53.838Z,37.98
2022-12-20T06:15:54.009Z,38.00
2022-12-20T06:16:53.905Z,38.20
2022-12-20T06:17:53.797Z,38.31
2022-12-20T06:18:53.810Z,38.31
2022-12-20T06:19:53.774Z,38.31
2022-12-20T06:20:53.779Z,38.31
2022-12-20T06:21:53.753Z,38.20
2022-12-20T06:22:53.756Z,38.10
2022-12-20T06:23:53.715Z,38.31
2022-12-20T06:24:53.722Z,38.40
2022-12-20T06:25:53.703Z,38.09
2022-12-20T06:26:53.676Z,38.31
2022-12-20T06:27:53.696Z,38.31
2022-12-20T06:28:53.648Z,38.51
2022-12-20T06:29:53.659Z,38.40
2022-12-20T06:30:53.635Z,38.31
2022-12-20T06:31:53.654Z,38.20
2022-12-20T06:32:53.619Z,38.31
2022-12-20T06:33:53.602Z,38.40
2022-12-20T06:34:53.607Z,38.51
2022-12-20T06:35:53.572Z,38.31
2022-12-20T06:36:53.555Z,38.40
2022-12-20T06:37:53.540Z,38.40
2022-12-20T06:38:53.513Z,38.53
2022-12-20T06:39:53.521Z,38.31
2022-12-20T06:40:53.537Z,38.20
2022-12-20T06:41:53.516Z,38.31
2022-12-20T06:42:53.480Z,38.40
2022-12-20T06:43:53.479Z,38.20
2022-12-20T06:44:53.465Z,38.20
2022-12-20T06:45:53.474Z,38.20
2022-12-20T06:46:53.416Z,38.31
2022-12-20T06:47:53.495Z,38.51
2022-12-20T06:48:53.394Z,38.62
2022-12-20T06:49:53.434Z,38.62
2022-12-20T06:50:56.048Z,38.62
2022-12-20T06:51:53.358Z,38.72
2022-12-20T06:52:53.346Z,38.62
2022-12-20T06:53:53.326Z,38.51
2022-12-20T06:54:53.333Z,38.62
2022-12-20T06:55:53.317Z,38.51
2022-12-20T06:56:53.316Z,38.31
2022-12-20T06:57:53.301Z,38.31
2022-12-20T06:58:53.265Z,38.20
2022-12-20T06:59:53.261Z,38.20
2022-12-20T07:00:53.291Z,38.31
2022-12-20T07:01:53.380Z,38.40
2022-12-20T07:02:53.399Z,38.20
2022-12-20T07:03:53.240Z,38.31
2022-12-20T07:04:53.210Z,38.40
2022-12-20T07:05:53.173Z,38.40
2022-12-20T07:06:53.171Z,38.51
2022-12-20T07:07:53.192Z,38.51
2022-12-20T07:08:53.165Z,38.51
2022-12-20T07:09:53.171Z,38.40
2022-12-20T07:10:53.125Z,38.51
2022-12-20T07:11:53.106Z,38.51
2022-12-20T07:12:53.083Z,38.31
2022-12-20T07:13:53.068Z,38.20
2022-12-20T07:14:53.094Z,38.31
2022-12-20T07:15:53.047Z,38.51
2022-12-20T07:16:53.096Z,38.51
2022-12-20T07:17:53.021Z,38.51
2022-12-20T07:18:53.013Z,38.62
2022-12-20T07:19:53.006Z,38.72
2022-12-20T07:20:52.990Z,38.62
2022-12-20T07:21:52.991Z,38.72
2022-12-20T07:22:52.970Z,38.72
2022-12-20T07:23:52.944Z,38.92
2022-12-20T07:24:52.950Z,38.92
2022-12-20T07:25:52.915Z,38.82
2022-12-20T07:26:52.907Z,38.62
2022-12-20T07:27:52.906Z,38.60
2022-12-20T07:28:52.878Z,38.72
2022-12-20T07:29:52.878Z,38.60
2022-12-20T07:30:52.862Z,38.62
2022-12-20T07:31:52.941Z,38.72
2022-12-20T07:32:52.837Z,38.72
2022-12-20T07:33:52.818Z,38.62
2022-12-20T07:34:52.841Z,38.60
2022-12-20T07:35:54.834Z,38.51
2022-12-20T07:36:52.775Z,38.62
2022-12-20T07:37:52.797Z,38.72
2022-12-20T07:38:52.767Z,38.40
2022-12-20T07:39:52.752Z,38.62
2022-12-20T07:40:52.730Z,38.51
2022-12-20T07:41:52.779Z,38.72
2022-12-20T07:42:52.711Z,38.72
2022-12-20T07:43:52.693Z,38.51
2022-12-20T07:44:52.720Z,38.60
2022-12-20T07:45:52.791Z,38.72
2022-12-20T07:46:52.672Z,38.62
2022-12-20T07:47:52.660Z,38.51
2022-12-20T07:48:52.654Z,38.60
2022-12-20T07:49:52.631Z,38.60
2022-12-20T07:50:52.599Z,38.72
2022-12-20T07:51:52.617Z,38.72
2022-12-20T07:52:52.599Z,38.62
2022-12-20T07:53:52.586Z,38.60
2022-12-20T07:54:52.612Z,38.62
2022-12-20T07:55:52.535Z,38.60
2022-12-20T07:56:52.528Z,38.51
2022-12-20T07:57:52.515Z,38.82
2022-12-20T07:58:52.568Z,38.92
2022-12-20T07:59:52.493Z,38.72
2022-12-20T08:00:52.565Z,38.60
2022-12-20T08:01:52.693Z,38.82
2022-12-20T08:02:52.708Z,38.82
2022-12-20T08:03:52.601Z,38.51
2022-12-20T08:04:52.424Z,38.72
2022-12-20T08:05:52.408Z,38.72
2022-12-20T08:06:52.394Z,38.92
2022-12-20T08:07:58.686Z,38.70
2022-12-20T08:08:52.399Z,38.39
2022-12-20T08:09:52.368Z,38.39
2022-12-20T08:10:52.345Z,38.18
2022-12-20T08:11:52.324Z,38.18
2022-12-20T08:12:52.310Z,38.09
2022-12-20T08:13:57.409Z,38.09
2022-12-20T08:14:52.329Z,38.09
2022-12-20T08:15:52.288Z,38.29
2022-12-20T08:16:52.356Z,37.79
2022-12-20T08:17:52.282Z,38.49
2022-12-20T08:18:52.243Z,37.65
2022-12-20T08:19:52.257Z,37.45
2022-12-20T08:20:52.220Z,37.77
2022-12-20T08:21:52.225Z,37.57
2022-12-20T08:22:52.188Z,37.96
2022-12-20T08:23:52.177Z,37.75
2022-12-20T08:24:52.173Z,37.75
2022-12-20T08:25:52.160Z,37.85
2022-12-20T08:26:52.133Z,37.73
2022-12-20T08:27:52.125Z,37.73
2022-12-20T08:28:52.181Z,37.73
2022-12-20T08:29:52.153Z,37.83
2022-12-20T08:30:52.137Z,37.63
2022-12-20T08:31:52.136Z,37.53
2022-12-20T08:32:52.060Z,37.41
2022-12-20T08:33:52.047Z,37.41
2022-12-20T08:34:52.024Z,37.83
2022-12-20T08:35:52.040Z,38.03
2022-12-20T08:36:52.005Z,37.93
2022-12-20T08:37:52.019Z,37.73
2022-12-20T08:38:51.980Z,37.63
2022-12-20T08:39:52.019Z,37.83
2022-12-20T08:40:52.016Z,38.23
2022-12-20T08:41:51.952Z,38.33
2022-12-20T08:42:51.930Z,38.13
2022-12-20T08:43:51.920Z,38.03
2022-12-20T08:44:52.708Z,38.11
2022-12-20T08:45:51.959Z,37.92
2022-12-20T08:46:51.906Z,38.13
2022-12-20T08:47:51.870Z,37.92
2022-12-20T08:48:51.852Z,37.92
2022-12-20T08:49:51.859Z,38.13
2022-12-20T08:50:51.874Z,38.13
2022-12-20T08:51:51.895Z,38.03
2022-12-20T08:52:51.811Z,38.01
2022-12-20T08:53:51.796Z,38.01
2022-12-20T08:54:51.802Z,37.71
2022-12-20T08:55:51.777Z,37.70
2022-12-20T08:56:51.774Z,37.71
2022-12-20T08:57:51.733Z,37.79
2022-12-20T08:58:51.752Z,37.59
2022-12-20T08:59:51.712Z,37.59
2022-12-20T09:00:51.757Z,37.59
2022-12-20T09:01:51.781Z,37.59
2022-12-20T09:02:51.983Z,37.92
2022-12-20T09:03:51.782Z,38.01
2022-12-20T09:04:51.665Z,38.31
2022-12-20T09:05:51.645Z,38.71
2022-12-20T09:06:51.635Z,38.81
2022-12-20T09:07:51.638Z,38.91
2022-12-20T09:08:51.608Z,39.01
2022-12-20T09:09:51.593Z,39.11
2022-12-20T09:10:51.590Z,39.22
2022-12-20T09:11:51.568Z,39.22
2022-12-20T09:12:51.567Z,39.31
2022-12-20T09:13:51.542Z,39.41
2022-12-20T09:14:51.516Z,39.22
2022-12-20T09:15:51.663Z,39.11
2022-12-20T09:16:51.529Z,38.81
2022-12-20T09:17:51.485Z,38.91
2022-12-20T09:18:51.512Z,39.11
2022-12-20T09:19:51.462Z,39.22
2022-12-20T09:20:51.453Z,39.01
2022-12-20T09:21:51.432Z,39.01
2022-12-20T09:22:51.428Z,39.22
2022-12-20T09:23:51.794Z,39.11
2022-12-20T09:24:51.901Z,39.11
2022-12-20T09:25:53.927Z,39.01
2022-12-20T09:26:52.233Z,39.11
2022-12-20T09:27:51.770Z,39.01
2022-12-20T09:28:51.780Z,39.01
2022-12-20T09:29:51.731Z,38.71
2022-12-20T09:30:51.933Z,38.81
2022-12-20T09:31:51.691Z,38.79
2022-12-20T09:32:51.730Z,38.79
2022-12-20T09:33:51.672Z,38.70
2022-12-20T09:34:51.836Z,38.59
2022-12-20T09:35:52.361Z,38.79
2022-12-20T09:36:51.650Z,38.79
2022-12-20T09:37:51.618Z,39.00
2022-12-20T09:38:51.656Z,38.89
2022-12-20T09:39:51.618Z,38.79
2022-12-20T09:40:52.213Z,38.89
2022-12-20T09:41:51.471Z,38.89
2022-12-20T09:42:52.375Z,38.79
2022-12-20T09:43:51.183Z,39.20
2022-12-20T09:44:51.143Z,39.20
2022-12-20T09:45:51.133Z,39.31
2022-12-20T09:46:51.201Z,39.41
2022-12-20T09:47:51.093Z,39.51
2022-12-20T09:48:51.079Z,39.72
2022-12-20T09:49:51.068Z,40.11
2022-12-20T09:50:51.079Z,40.31
2022-12-20T09:51:51.039Z,40.61
2022-12-20T09:52:51.029Z,40.19
2022-12-20T09:53:51.095Z,40.71
2022-12-20T09:54:51.077Z,40.59
2022-12-20T09:55:51.001Z,40.81
2022-12-20T09:56:51.008Z,40.50
2022-12-20T09:57:50.976Z,40.39
2022-12-20T09:58:50.949Z,40.17
2022-12-20T09:59:50.966Z,40.30
2022-12-20T10:00:54.273Z,40.50
2022-12-20T10:01:51.008Z,40.28
2022-12-20T10:03:51.102Z,40.50
2022-12-20T10:04:51.102Z,40.59
2022-12-20T10:05:51.082Z,40.50
2022-12-20T10:06:50.891Z,40.69
2022-12-20T10:07:50.843Z,40.30
2022-12-20T10:08:50.874Z,40.39
2022-12-20T10:09:50.825Z,40.17
2022-12-20T10:10:50.798Z,40.50
2022-12-20T10:11:51.104Z,40.80
2022-12-20T10:12:50.780Z,40.69
2022-12-20T10:13:50.755Z,40.89
2022-12-20T10:14:50.799Z,40.80
2022-12-20T10:15:50.837Z,40.30
2022-12-20T10:16:50.724Z,40.50
2022-12-20T10:17:50.712Z,40.17
2022-12-20T10:18:50.716Z,40.17
2022-12-20T10:19:50.723Z,40.09
2022-12-20T10:20:50.712Z,40.09
2022-12-20T10:21:50.669Z,40.08
2022-12-20T10:22:50.639Z,40.30
2022-12-20T10:23:50.633Z,40.30
2022-12-20T10:24:50.621Z,40.39
2022-12-20T10:25:50.611Z,40.30
2022-12-20T10:26:50.617Z,40.30
2022-12-20T10:27:50.572Z,40.19
2022-12-20T10:28:54.227Z,40.19
2022-12-20T10:29:50.567Z,40.00
2022-12-20T10:30:50.573Z,40.19
2022-12-20T10:31:50.594Z,40.00
2022-12-20T10:32:50.529Z,39.89
2022-12-20T10:33:50.570Z,39.78
2022-12-20T10:34:50.489Z,40.39
2022-12-20T10:35:50.483Z,40.09
2022-12-20T10:36:50.479Z,40.00
2022-12-20T10:38:06.417Z,39.67
2022-12-20T10:38:50.468Z,39.78
2022-12-20T10:39:50.433Z,39.48
2022-12-20T10:41:50.426Z,40.00
2022-12-20T10:42:50.391Z,40.00
2022-12-20T10:43:50.380Z,39.79
2022-12-20T10:44:50.365Z,39.50
2022-12-20T10:45:50.342Z,39.48
2022-12-20T10:46:50.518Z,39.07
2022-12-20T10:47:50.409Z,39.06
2022-12-20T10:48:50.302Z,38.87
2022-12-20T10:53:48.401Z,38.66
2022-12-20T10:54:49.355Z,38.56
2022-12-20T10:55:49.353Z,38.76
2022-12-20T10:56:49.353Z,38.87
2022-12-20T10:57:49.380Z,38.98
2022-12-20T10:58:49.320Z,38.87
2022-12-20T10:59:49.311Z,38.66
2022-12-20T11:00:49.315Z,38.36
2022-12-20T11:01:49.388Z,38.36
2022-12-20T11:02:49.461Z,38.56
2022-12-20T11:03:49.434Z,38.26
2022-12-20T11:04:49.240Z,38.26
2022-12-20T11:05:49.213Z,38.46
2022-12-20T11:06:49.211Z,38.56
2022-12-20T11:08:08.438Z,38.66
2022-12-20T11:08:53.909Z,38.68
2022-12-20T11:09:49.177Z,38.68
2022-12-20T11:10:49.159Z,38.56
2022-12-20T11:11:49.143Z,38.66
2022-12-20T11:12:49.142Z,39.07
2022-12-20T11:13:49.126Z,39.18
2022-12-20T11:14:49.115Z,39.28
2022-12-20T11:15:49.199Z,39.78
2022-12-20T11:16:49.187Z,39.98
2022-12-20T11:17:49.099Z,39.89
2022-12-20T11:18:49.131Z,39.67
2022-12-20T11:19:49.051Z,39.78
2022-12-20T11:20:49.036Z,39.98
2022-12-20T11:21:49.017Z,39.78
2022-12-20T11:22:49.033Z,39.67
2022-12-20T11:23:48.995Z,39.78
2022-12-20T11:24:49.001Z,39.87
2022-12-20T11:25:48.972Z,39.67
2022-12-20T11:26:48.976Z,39.98
2022-12-20T11:27:48.942Z,39.78
2022-12-20T11:28:48.938Z,39.78
2022-12-20T11:29:48.961Z,40.17
2022-12-20T11:30:48.914Z,40.19
2022-12-20T11:31:48.962Z,40.50
2022-12-20T11:32:49.290Z,40.50
2022-12-20T11:33:48.868Z,40.59
2022-12-20T11:34:48.858Z,40.89
2022-12-20T11:35:48.837Z,41.09
2022-12-20T11:36:48.836Z,40.17
